Time;durP1;ratioP1;P1;durP2;ratioP2;P2;SDS_P1;SDS_P2;PMS_P1;PMS_P2;Temp;Humidity;BMP_temperature;BMP_pressure;BME280_temperature;BME280_humidity;BME280_pressure;Samples;Min_cycle;Max_cycle;Signal;HPM_P1;HPM_P2
2022/03/10 00:01:56;;;;;;;9.13;6.37;;;7.60;99.90;;;;;;1912071;75;21094;-76
2022/03/10 00:07:27;;;;;;;10.18;6.40;;;7.50;99.90;;;;;;1931919;72;22175;-75
2022/03/10 00:10:37;;;;;;;8.18;6.10;;;7.60;99.90;;;;;;1908475;75;21127;-77
2022/03/10 00:13:30;;;;;;;9.58;6.45;;;7.50;99.90;;;;;;1904419;75;21114;-77
2022/03/10 00:16:21;;;;;;;7.83;6.43;;;7.40;99.90;;;;;;1878087;76;21579;-76
2022/03/10 00:19:14;;;;;;;9.68;6.28;;;7.30;99.90;;;;;;1895680;75;21157;-76
2022/03/10 00:22:11;;;;;;;9.40;6.62;;;7.30;99.90;;;;;;1900656;75;21111;-75
2022/03/10 00:25:00;;;;;;;7.90;5.90;;;7.30;99.90;;;;;;1891052;75;21036;-76
2022/03/10 00:27:52;;;;;;;8.63;6.22;;;7.40;99.90;;;;;;1900868;75;21118;-76
2022/03/10 00:30:43;;;;;;;8.80;6.67;;;7.40;99.90;;;;;;1906141;75;21135;-76
2022/03/10 00:33:35;;;;;;;8.63;6.37;;;7.30;99.90;;;;;;1889399;75;21053;-76
2022/03/10 00:36:27;;;;;;;11.12;6.90;;;7.30;99.90;;;;;;1904400;75;21059;-76
2022/03/10 00:39:18;;;;;;;8.08;6.53;;;7.30;99.90;;;;;;1903460;75;21092;-77
2022/03/10 00:42:11;;;;;;;10.08;6.70;;;7.30;99.90;;;;;;1906984;75;21495;-76
2022/03/10 00:47:43;;;;;;;9.23;6.17;;;7.30;99.90;;;;;;1944564;72;22149;-77
2022/03/10 00:50:53;;;;;;;8.55;6.53;;;7.30;99.90;;;;;;1897471;75;21141;-77
2022/03/10 00:53:44;;;;;;;8.53;6.42;;;7.20;99.90;;;;;;1905271;75;21164;-76
2022/03/10 00:56:35;;;;;;;8.18;6.40;;;7.20;99.90;;;;;;1901060;75;21048;-76
2022/03/10 00:59:26;;;;;;;9.35;5.95;;;7.20;99.90;;;;;;1900607;75;21055;-76
2022/03/10 01:02:17;;;;;;;9.50;7.12;;;7.10;99.90;;;;;;1894289;75;21090;-76
2022/03/10 01:07:47;;;;;;;9.58;6.70;;;7.10;99.90;;;;;;1940260;72;22688;-77
2022/03/10 01:13:36;;;;;;;10.18;6.55;;;7.00;99.90;;;;;;1941166;72;22150;-77
2022/03/10 01:19:25;;;;;;;10.32;7.78;;;6.80;99.90;;;;;;1946901;72;22345;-77
2022/03/10 01:22:37;;;;;;;10.20;7.87;;;6.80;99.90;;;;;;1907007;75;21059;-76
2022/03/10 01:25:28;;;;;;;9.23;7.03;;;6.70;99.90;;;;;;1893069;75;21069;-77
2022/03/10 01:28:19;;;;;;;10.08;7.83;;;6.80;99.90;;;;;;1884576;75;21161;-76
2022/03/10 01:31:11;;;;;;;11.75;8.18;;;6.80;99.90;;;;;;1906408;75;21200;-76
2022/03/10 01:34:02;;;;;;;10.90;7.67;;;6.80;99.90;;;;;;1907007;75;21093;-76
2022/03/10 01:36:53;;;;;;;10.15;7.72;;;6.70;99.90;;;;;;1893121;75;21079;-76
2022/03/10 01:42:23;;;;;;;10.25;7.67;;;6.70;99.90;;;;;;1944821;72;22158;-75
2022/03/10 01:45:33;;;;;;;10.35;8.03;;;6.70;99.90;;;;;;1911236;75;21047;-76
2022/03/10 01:48:24;;;;;;;10.98;8.48;;;6.70;99.90;;;;;;1893382;75;21216;-77
2022/03/10 01:53:55;;;;;;;11.85;8.98;;;6.70;99.90;;;;;;1976354;72;22265;-77
2022/03/10 01:57:06;;;;;;;11.78;8.83;;;6.70;99.90;;;;;;1906143;73;21064;-76
2022/03/10 02:02:35;;;;;;;12.07;8.75;;;6.60;99.90;;;;;;1958415;72;22283;-77
2022/03/10 02:18:19;;;;;;;11.78;9.10;;;6.50;99.90;;;;;;1900278;74;21096;-77
2022/03/10 02:21:11;;;;;;;12.82;8.98;;;6.50;99.90;;;;;;1916087;74;21089;-77
2022/03/10 02:24:02;;;;;;;12.25;9.70;;;6.50;99.90;;;;;;1919340;74;21082;-77
2022/03/10 02:32:15;;;;;;;11.78;8.75;;;6.40;99.90;;;;;;1948919;72;22341;-77
2022/03/10 02:35:25;;;;;;;13.65;9.25;;;6.40;99.90;;;;;;1932546;73;21218;-77
2022/03/10 02:38:18;;;;;;;12.45;9.25;;;6.40;99.90;;;;;;1943572;73;21059;-76
2022/03/10 02:41:10;;;;;;;16.97;9.55;;;6.40;99.90;;;;;;1939811;73;21109;-76
2022/03/10 02:44:01;;;;;;;14.80;10.93;;;6.40;99.90;;;;;;1920039;73;21557;-77
2022/03/10 02:46:52;;;;;;;15.35;11.33;;;6.40;99.90;;;;;;1913630;75;21216;-76
2022/03/10 02:49:45;;;;;;;16.82;11.18;;;6.30;99.90;;;;;;1930555;73;21158;-75
2022/03/10 02:52:38;;;;;;;13.85;10.63;;;6.20;99.90;;;;;;1917556;75;21153;-75
2022/03/10 02:55:30;;;;;;;15.00;11.15;;;6.30;99.90;;;;;;1914470;75;21058;-75
2022/03/10 02:58:21;;;;;;;15.80;10.55;;;6.20;99.90;;;;;;1923018;73;21144;-78
2022/03/10 03:01:16;;;;;;;13.60;10.90;;;6.20;99.90;;;;;;1944305;73;21035;-76
2022/03/10 03:04:08;;;;;;;13.10;10.00;;;6.30;99.90;;;;;;1917699;75;21050;-76
2022/03/10 03:06:59;;;;;;;13.03;10.08;;;6.20;99.90;;;;;;1935669;73;21058;-75
2022/03/10 03:09:51;;;;;;;14.43;10.80;;;6.10;99.90;;;;;;1902455;75;21067;-76
2022/03/10 03:12:47;;;;;;;13.93;10.18;;;6.10;99.90;;;;;;1923281;73;21090;-76
2022/03/10 03:15:38;;;;;;;12.85;10.38;;;6.10;99.90;;;;;;1875430;76;21071;-76
2022/03/10 03:18:30;;;;;;;15.72;10.05;;;6.00;99.90;;;;;;1917832;75;21051;-76
2022/03/10 03:21:21;;;;;;;13.08;10.28;;;6.00;99.90;;;;;;1904396;75;21176;-76
2022/03/10 03:26:55;;;;;;;12.68;10.15;;;6.00;99.90;;;;;;1940383;72;22157;-77
2022/03/10 03:32:44;;;;;;;13.62;10.15;;;5.90;99.90;;;;;;1947431;72;22514;-77
2022/03/10 03:38:33;;;;;;;11.12;8.20;;;5.90;99.90;;;;;;1934548;72;22213;-77
2022/03/10 03:41:43;;;;;;;10.68;7.58;;;6.00;99.90;;;;;;1898413;74;21046;-76
2022/03/10 03:47:13;;;;;;;9.45;6.90;;;6.00;99.90;;;;;;1952958;72;22676;-76
2022/03/10 03:50:23;;;;;;;10.65;7.10;;;6.00;99.90;;;;;;1921334;73;21152;-76
2022/03/10 03:53:15;;;;;;;10.38;6.92;;;5.90;99.90;;;;;;1939263;73;21051;-76
2022/03/10 03:58:45;;;;;;;10.58;7.08;;;5.90;99.90;;;;;;1946411;72;22101;-77
2022/03/10 04:04:34;;;;;;;8.90;6.22;;;5.80;99.90;;;;;;1973928;72;22200;-76
2022/03/10 04:07:43;;;;;;;9.78;6.78;;;5.80;99.90;;;;;;1917676;75;21114;-77
2022/03/10 04:10:37;;;;;;;11.63;7.42;;;5.70;99.90;;;;;;1917723;75;21083;-76
2022/03/10 04:13:28;;;;;;;9.70;7.47;;;5.70;99.90;;;;;;1917855;75;21109;-75
2022/03/10 04:16:20;;;;;;;11.60;7.15;;;5.60;99.90;;;;;;1921222;73;21116;-76
2022/03/10 04:19:12;;;;;;;11.38;8.23;;;5.60;99.90;;;;;;1940105;73;21046;-76
2022/03/10 04:22:04;;;;;;;12.68;8.83;;;5.50;99.90;;;;;;1917672;75;21098;-76
2022/03/10 04:27:34;;;;;;;14.20;8.45;;;5.50;99.90;;;;;;1942851;72;22375;-77
2022/03/10 04:30:44;;;;;;;10.75;8.30;;;5.50;99.90;;;;;;1895208;75;21030;-76
2022/03/10 04:33:37;;;;;;;14.95;10.40;;;5.50;99.90;;;;;;1904722;75;21075;-76
2022/03/10 04:36:28;;;;;;;13.58;10.32;;;5.50;99.90;;;;;;1885475;75;21494;-77
2022/03/10 04:39:19;;;;;;;18.70;10.40;;;5.50;99.90;;;;;;1895711;75;21111;-76
2022/03/10 04:47:29;;;;;;;13.85;10.93;;;5.30;99.90;;;;;;1956126;72;22226;-77
2022/03/10 04:50:39;;;;;;;14.95;11.28;;;5.30;99.90;;;;;;1922085;74;21055;-76
2022/03/10 04:53:30;;;;;;;15.93;11.10;;;5.30;99.90;;;;;;1895467;75;21084;-76
2022/03/10 04:56:21;;;;;;;14.10;10.48;;;5.30;99.90;;;;;;1905055;75;21121;-76
2022/03/10 04:59:13;;;;;;;16.03;11.33;;;5.30;99.90;;;;;;1917782;75;21071;-76
2022/03/10 05:02:04;;;;;;;13.35;10.45;;;5.30;99.90;;;;;;1896738;75;21209;-76
2022/03/10 05:07:38;;;;;;;14.53;10.08;;;5.30;99.90;;;;;;1953770;72;22159;-77
2022/03/10 05:13:27;;;;;;;13.40;9.83;;;5.30;99.90;;;;;;1976404;72;22170;-75
2022/03/10 05:16:36;;;;;;;15.13;9.95;;;5.20;99.90;;;;;;1937807;73;21051;-76
2022/03/10 05:19:27;;;;;;;16.17;9.95;;;5.20;99.90;;;;;;1917786;75;21078;-76
2022/03/10 05:22:19;;;;;;;14.85;10.65;;;5.10;99.90;;;;;;1925919;73;21103;-76
2022/03/10 05:27:51;;;;;;;16.45;10.85;;;5.10;99.90;;;;;;1926072;72;22330;-77
2022/03/10 05:31:00;;;;;;;17.82;11.68;;;5.10;99.90;;;;;;1902897;75;21095;-76
2022/03/10 05:33:51;;;;;;;16.67;11.97;;;5.20;99.90;;;;;;1895710;75;21106;-76
2022/03/10 05:39:23;;;;;;;19.80;12.70;;;5.10;99.90;;;;;;1955952;72;22171;-77
2022/03/10 05:42:33;;;;;;;18.10;12.05;;;5.10;99.90;;;;;;1895780;75;21117;-77
2022/03/10 05:45:25;;;;;;;15.32;10.90;;;5.00;99.90;;;;;;1900283;75;21083;-77
2022/03/10 05:48:16;;;;;;;15.65;10.90;;;5.00;99.90;;;;;;1917081;75;21046;-77
2022/03/10 05:51:08;;;;;;;14.73;11.00;;;4.90;99.90;;;;;;1902131;75;21047;-77
2022/03/10 05:53:59;;;;;;;14.98;11.12;;;4.80;99.90;;;;;;1917626;75;21043;-76
2022/03/10 05:56:51;;;;;;;14.93;10.78;;;4.80;99.90;;;;;;1895321;75;21095;-76
2022/03/10 06:02:21;;;;;;;16.73;11.43;;;4.80;99.90;;;;;;1955142;72;22192;-77
2022/03/10 06:08:09;;;;;;;14.73;10.90;;;4.80;99.90;;;;;;1942404;72;22142;-77
2022/03/10 06:11:18;;;;;;;15.13;11.43;;;4.90;99.90;;;;;;1914657;74;21583;-78
2022/03/10 06:14:11;;;;;;;17.80;10.93;;;4.90;99.90;;;;;;1919193;74;21051;-77
2022/03/10 06:17:03;;;;;;;18.30;11.45;;;4.90;99.90;;;;;;1902177;75;21141;-76
2022/03/10 06:22:38;;;;;;;15.20;11.97;;;4.90;99.90;;;;;;1947197;72;22237;-77
2022/03/10 06:25:49;;;;;;;15.63;11.90;;;4.80;99.90;;;;;;1934337;73;21051;-76
2022/03/10 06:28:41;;;;;;;16.40;11.33;;;4.80;99.90;;;;;;1917692;75;21065;-77
2022/03/10 06:34:12;;;;;;;17.30;11.60;;;4.90;99.90;;;;;;1949554;72;22209;-83
2022/03/10 06:37:22;;;;;;;17.27;11.70;;;4.90;99.90;;;;;;1910528;73;21144;-77
2022/03/10 06:40:15;;;;;;;20.85;12.47;;;4.90;99.90;;;;;;1901268;75;21157;-77
2022/03/10 06:45:44;;;;;;;15.38;11.73;;;4.90;99.90;;;;;;1941511;72;22197;-76
2022/03/10 06:48:56;;;;;;;17.20;11.43;;;4.90;99.90;;;;;;1907363;75;21128;-77
2022/03/10 06:54:27;;;;;;;15.10;11.83;;;5.10;99.90;;;;;;1955739;72;22258;-77
2022/03/10 06:57:37;;;;;;;18.05;12.33;;;5.20;99.90;;;;;;1927094;74;21047;-76
2022/03/10 07:03:08;;;;;;;17.32;12.82;;;5.20;99.90;;;;;;1948403;72;22264;-77
2022/03/10 07:06:21;;;;;;;18.50;12.75;;;5.20;99.90;;;;;;1907367;75;21110;-79
2022/03/10 07:09:12;;;;;;;18.35;12.33;;;5.20;99.90;;;;;;1917511;75;21112;-76
2022/03/10 07:12:04;;;;;;;15.55;11.33;;;5.30;99.90;;;;;;1903656;75;21055;-77
2022/03/10 07:17:35;;;;;;;17.17;11.57;;;5.40;99.90;;;;;;1949774;72;22302;-77
2022/03/10 07:20:45;;;;;;;13.88;10.32;;;5.40;99.90;;;;;;1835096;77;21128;-77
2022/03/10 07:23:36;;;;;;;15.98;11.00;;;5.40;99.90;;;;;;1903898;75;21094;-76
2022/03/10 07:26:28;;;;;;;15.60;10.82;;;5.50;99.90;;;;;;1909428;75;21044;-77
2022/03/10 07:29:19;;;;;;;16.17;11.57;;;5.50;99.90;;;;;;1915443;75;21047;-77
2022/03/10 07:32:12;;;;;;;16.10;11.35;;;5.60;99.90;;;;;;1914143;75;21200;-78
2022/03/10 07:35:04;;;;;;;17.53;11.27;;;5.70;99.90;;;;;;1896714;75;21058;-77
2022/03/10 07:37:59;;;;;;;17.73;11.22;;;5.80;99.90;;;;;;1899055;75;21122;-76
2022/03/10 07:40:49;;;;;;;15.20;10.70;;;5.90;99.90;;;;;;1916962;75;21051;-76
2022/03/10 07:43:41;;;;;;;18.45;11.65;;;5.90;99.90;;;;;;1895072;75;21142;-77
2022/03/10 07:46:33;;;;;;;16.27;11.95;;;6.00;99.90;;;;;;1896045;75;21146;-77
2022/03/10 07:49:24;;;;;;;17.82;12.07;;;6.10;99.90;;;;;;1884668;76;21088;-76
2022/03/10 07:54:54;;;;;;;17.23;12.93;;;6.20;99.90;;;;;;1932945;72;22191;-77
2022/03/10 07:58:04;;;;;;;18.02;12.37;;;6.30;99.90;;;;;;1894698;75;21118;-77
2022/03/10 08:03:34;;;;;;;18.20;12.43;;;6.50;99.90;;;;;;1937758;72;22158;-76
2022/03/10 08:06:44;;;;;;;17.40;12.43;;;6.50;99.90;;;;;;1900828;75;21055;-75
2022/03/10 08:09:36;;;;;;;17.27;12.25;;;6.70;99.90;;;;;;1874943;75;21099;-75
2022/03/10 08:17:49;;;;;;;15.88;12.63;;;6.70;99.90;;;;;;1938976;72;22236;-76
2022/03/10 08:20:59;;;;;;;18.82;12.58;;;6.80;99.90;;;;;;1917117;74;21082;-75
2022/03/10 08:23:50;;;;;;;17.55;12.33;;;6.80;99.90;;;;;;1922428;74;21162;-75
2022/03/10 08:26:42;;;;;;;17.77;12.68;;;6.90;99.90;;;;;;1919040;74;21098;-75
2022/03/10 08:29:36;;;;;;;15.65;12.60;;;7.00;99.90;;;;;;1895391;75;21510;-76
2022/03/10 08:32:27;;;;;;;18.77;12.73;;;7.10;99.90;;;;;;1906855;75;21051;-76
2022/03/10 08:35:19;;;;;;;17.35;12.93;;;7.10;99.90;;;;;;1905601;75;21055;-75
2022/03/10 08:38:11;;;;;;;18.05;11.90;;;7.20;99.90;;;;;;1899949;75;21675;-76
2022/03/10 08:41:02;;;;;;;16.32;11.95;;;7.20;99.90;;;;;;1899855;75;21047;-74
2022/03/10 08:43:54;;;;;;;18.90;12.80;;;7.30;99.90;;;;;;1888111;75;21176;-76
2022/03/10 08:46:45;;;;;;;19.87;12.95;;;7.40;99.90;;;;;;1908015;75;21059;-75
2022/03/10 08:49:36;;;;;;;15.05;12.18;;;7.50;99.90;;;;;;1903103;75;21127;-74
2022/03/10 08:52:28;;;;;;;18.17;13.95;;;7.60;99.90;;;;;;1884645;76;21100;-75
2022/03/10 08:55:19;;;;;;;18.42;13.38;;;7.70;99.90;;;;;;1893305;74;21142;-75
2022/03/10 08:58:11;;;;;;;20.48;13.45;;;7.80;99.90;;;;;;1917440;74;21047;-76
2022/03/10 09:03:42;;;;;;;17.07;12.88;;;7.90;99.90;;;;;;1958185;72;22147;-76
2022/03/10 09:09:30;;;;;;;18.92;12.73;;;8.10;99.90;;;;;;1975067;72;22123;-76
2022/03/10 09:12:40;;;;;;;18.12;12.18;;;8.20;99.90;;;;;;1917603;74;21133;-76
2022/03/10 09:15:32;;;;;;;17.75;11.85;;;8.20;99.90;;;;;;1932633;74;21095;-75
2022/03/10 09:18:23;;;;;;;15.60;11.28;;;8.30;99.90;;;;;;1905166;75;21059;-75
2022/03/10 09:21:15;;;;;;;14.63;10.82;;;8.50;99.90;;;;;;1923422;74;21051;-75
2022/03/10 09:24:08;;;;;;;17.25;11.63;;;8.50;99.90;;;;;;1913849;74;21596;-75
2022/03/10 09:27:01;;;;;;;14.47;11.10;;;8.60;99.90;;;;;;1925252;74;21048;-77
2022/03/10 09:32:38;;;;;;;14.30;11.12;;;8.80;99.90;;;;;;1946884;72;22253;-75
2022/03/10 09:35:48;;;;;;;13.20;10.53;;;8.90;99.90;;;;;;1897935;75;21052;-76
2022/03/10 09:38:41;;;;;;;15.13;11.00;;;9.00;99.90;;;;;;1884780;75;21067;-75
2022/03/10 09:44:15;;;;;;;16.32;10.75;;;9.20;99.90;;;;;;1964150;72;22212;-76
2022/03/10 09:47:25;;;;;;;14.83;10.53;;;9.20;99.90;;;;;;1929965;73;21512;-76
2022/03/10 09:50:19;;;;;;;12.95;9.78;;;9.40;99.90;;;;;;1944278;73;21102;-75
2022/03/10 09:53:11;;;;;;;12.35;9.55;;;9.40;99.90;;;;;;1928810;73;21091;-75
2022/03/10 09:58:41;;;;;;;14.05;8.85;;;9.60;99.90;;;;;;1941479;72;22255;-76
2022/03/10 10:01:51;;;;;;;13.20;9.70;;;9.70;99.90;;;;;;1905505;74;21199;-75
2022/03/10 10:07:25;;;;;;;12.07;9.48;;;9.90;99.90;;;;;;1936268;72;22186;-75
2022/03/10 10:13:18;;;;;;;12.00;9.50;;;10.00;99.90;;;;;;1941590;72;22244;-76
2022/03/10 10:16:28;;;;;;;16.05;9.75;;;10.10;99.90;;;;;;1906238;74;21111;-76
2022/03/10 10:19:20;;;;;;;14.07;10.70;;;10.20;99.90;;;;;;1919615;74;21112;-75
2022/03/10 10:22:14;;;;;;;14.03;10.18;;;10.30;99.90;;;;;;1910877;75;21114;-75
2022/03/10 10:27:46;;;;;;;12.82;8.95;;;10.50;99.90;;;;;;1942510;72;22233;-76
2022/03/10 10:31:00;;;;;;;11.43;9.15;;;10.70;99.90;;;;;;1913962;75;21093;-75
2022/03/10 10:34:00;;;;;;;12.93;9.53;;;10.80;99.90;;;;;;1917488;75;21219;-75
2022/03/10 10:39:29;;;;;;;13.70;8.60;;;10.90;99.90;;;;;;1962010;72;22259;-75
2022/03/10 10:45:31;;;;;;;11.70;8.00;;;11.10;99.90;;;;;;1949027;72;22277;-76
2022/03/10 10:48:48;;;;;;;11.03;8.28;;;11.20;99.90;;;;;;1930114;73;21030;-74
2022/03/10 10:51:39;;;;;;;;;;;11.30;99.90;;;;;;1955778;73;21070;-74
2022/03/10 10:54:32;;;;;;;13.28;8.68;;;11.30;99.90;;;;;;1943875;73;20169;-74
2022/03/10 11:00:09;;;;;;;11.65;9.03;;;11.30;99.90;;;;;;1952069;72;22272;-76
2022/03/10 11:03:26;;;;;;;11.88;8.65;;;11.40;99.90;;;;;;1889828;75;21125;-75
2022/03/10 11:06:17;;;;;;;12.00;8.80;;;11.50;99.90;;;;;;1884696;75;21102;-75
2022/03/10 11:09:08;;;;;;;13.95;9.13;;;11.60;99.90;;;;;;1884438;75;21055;-75
2022/03/10 11:14:40;;;;;;;11.70;7.83;;;11.80;99.90;;;;;;1946262;72;22161;-76
2022/03/10 11:17:50;;;;;;;12.15;7.62;;;11.90;99.90;;;;;;1940685;73;21099;-75
2022/03/10 11:20:45;;;;;;;12.68;7.70;;;11.90;99.90;;;;;;1917494;75;21167;-75
2022/03/10 11:23:42;;;;;;;11.60;7.28;;;12.00;99.90;;;;;;1934921;73;21176;-74
2022/03/10 11:26:37;;;;;;;10.80;7.15;;;12.10;99.90;;;;;;1936748;73;21106;-74
2022/03/10 11:29:29;;;;;;;9.88;7.42;;;12.20;99.90;;;;;;1917541;75;21040;-75
2022/03/10 11:32:27;;;;;;;14.10;8.65;;;12.30;99.90;;;;;;1943081;73;21102;-75
2022/03/10 11:35:18;;;;;;;15.70;8.20;;;12.40;99.90;;;;;;1917461;75;21165;-74
2022/03/10 11:38:11;;;;;;;11.65;8.13;;;12.60;99.90;;;;;;1935961;73;21362;-74
2022/03/10 11:41:02;;;;;;;11.55;7.80;;;12.70;99.90;;;;;;1922466;73;21047;-74
2022/03/10 11:44:05;;;;;;;11.70;8.15;;;12.70;99.90;;;;;;1940155;73;21146;-74
2022/03/10 11:47:00;;;;;;;11.65;7.92;;;12.70;99.90;;;;;;1939886;73;21105;-74
2022/03/10 11:49:53;;;;;;;8.73;5.87;;;12.90;99.90;;;;;;1917616;75;21059;-74
2022/03/10 11:52:44;;;;;;;8.78;5.78;;;13.00;99.90;;;;;;1917372;75;21051;-75
2022/03/10 11:58:24;;;;;;;9.13;5.00;;;13.10;99.90;;;;;;1947198;72;22204;-75
2022/03/10 12:01:43;;;;;;;8.45;4.03;;;13.00;99.90;;;;;;1912958;75;21181;-75
2022/03/10 12:04:37;;;;;;;6.85;4.45;;;13.20;99.90;;;;;;1887420;75;21204;-75
2022/03/10 12:10:14;;;;;;;6.08;4.17;;;13.30;99.90;;;;;;1961821;72;22278;-76
2022/03/10 12:13:29;;;;;;;5.95;4.45;;;13.40;99.90;;;;;;1931363;73;21058;-80
2022/03/10 12:16:40;;;;;;;6.45;3.80;;;13.40;99.90;;;;;;1928597;73;21054;-80
2022/03/10 12:20:14;;;;;;;4.72;4.28;;;13.50;99.90;;;;;;1917511;75;21142;-75
2022/03/10 12:23:13;;;;;;;4.53;3.92;;;13.60;99.90;;;;;;1936383;73;21046;-76
2022/03/10 12:26:10;;;;;;;7.67;4.37;;;13.60;99.90;;;;;;1935261;73;21060;-75
2022/03/10 12:29:04;;;;;;;5.85;4.20;;;13.80;99.90;;;;;;1919522;73;21090;-75
2022/03/10 12:31:58;;;;;;;6.00;4.17;;;13.70;99.90;;;;;;1917617;73;21527;-74
2022/03/10 12:34:51;;;;;;;6.25;3.85;;;13.70;99.90;;;;;;1917821;75;21121;-74
2022/03/10 12:37:48;;;;;;;4.97;3.10;;;13.80;99.90;;;;;;1929751;73;21128;-75
2022/03/10 12:40:41;;;;;;;5.75;3.02;;;14.00;99.90;;;;;;1920859;73;21344;-76
2022/03/10 12:43:33;;;;;;;4.47;3.08;;;14.00;99.90;;;;;;1920987;73;21110;-75
2022/03/10 12:49:09;;;;;;;3.47;2.75;;;14.10;99.90;;;;;;1963364;72;22158;-75
2022/03/10 12:52:25;;;;;;;4.70;2.80;;;14.20;99.90;;;;;;1937365;73;21047;-74
2022/03/10 12:57:51;;;;;;;4.08;3.02;;;14.10;99.90;;;;;;1933927;72;22201;-74
2022/03/10 13:01:11;;;;;;;4.37;3.33;;;14.00;99.90;;;;;;1898550;75;21040;-75
2022/03/10 13:04:03;;;;;;;6.20;3.10;;;14.10;99.90;;;;;;1914611;75;21338;-75
2022/03/10 13:09:39;;;;;;;4.00;3.10;;;14.30;99.90;;;;;;1948266;72;22142;-76
2022/03/10 13:12:52;;;;;;;3.20;2.90;;;14.30;99.90;;;;;;1913236;75;21128;-74
2022/03/10 13:15:42;;;;;;;3.37;2.87;;;14.30;99.90;;;;;;1906432;75;21526;-74
2022/03/10 13:18:42;;;;;;;3.60;3.08;;;14.40;99.90;;;;;;1901355;75;21124;-74
2022/03/10 13:24:35;;;;;;;4.78;3.20;;;14.60;99.90;;;;;;1948129;72;22129;-76
2022/03/10 13:27:46;;;;;;;4.37;2.98;;;14.60;99.90;;;;;;1913832;75;21127;-74
2022/03/10 13:30:39;;;;;;;4.35;2.95;;;14.50;99.90;;;;;;1916584;75;21185;-74
2022/03/10 13:33:31;;;;;;;4.03;2.62;;;14.70;99.90;;;;;;1917088;75;21034;-75
2022/03/10 13:36:24;;;;;;;8.75;3.70;;;14.90;99.90;;;;;;1884868;75;21176;-75
2022/03/10 13:39:16;;;;;;;3.92;2.60;;;14.80;99.90;;;;;;1880197;76;21139;-75
2022/03/10 13:42:10;;;;;;;7.12;2.95;;;14.80;99.90;;;;;;1913575;75;21096;-74
2022/03/10 13:45:10;;;;;;;4.42;2.95;;;14.90;99.90;;;;;;1914878;75;21034;-74
2022/03/10 13:48:03;;;;;;;3.90;2.75;;;15.10;99.90;;;;;;1908517;75;21066;-75
2022/03/10 13:50:56;;;;;;;3.92;2.98;;;15.10;99.90;;;;;;1915648;75;21078;-75
2022/03/10 13:54:00;;;;;;;2.67;2.20;;;15.20;99.90;;;;;;1885621;75;21190;-74
2022/03/10 13:56:53;;;;;;;6.00;2.60;;;15.00;99.90;;;;;;1856099;76;21120;-75
2022/03/10 13:59:45;;;;;;;7.15;2.50;;;15.20;99.90;;;;;;1911973;75;21106;-75
2022/03/10 14:02:37;;;;;;;4.33;2.80;;;15.10;99.90;;;;;;1894081;75;21037;-75
2022/03/10 14:05:31;;;;;;;5.95;2.62;;;15.30;99.90;;;;;;1884481;75;21100;-75
2022/03/10 14:08:24;;;;;;;3.20;2.50;;;15.30;99.90;;;;;;1906716;75;21075;-75
2022/03/10 14:11:15;;;;;;;4.85;2.83;;;15.10;99.90;;;;;;1905204;75;21339;-75
2022/03/10 14:14:07;;;;;;;6.40;2.70;;;15.20;99.90;;;;;;1848906;77;21592;-74
2022/03/10 14:17:01;;;;;;;4.37;2.67;;;15.00;99.90;;;;;;1900936;75;21070;-74
2022/03/10 14:19:55;;;;;;;5.25;2.85;;;15.30;99.90;;;;;;1896802;75;21070;-74
2022/03/10 14:22:46;;;;;;;5.15;2.58;;;15.40;99.90;;;;;;1916416;74;21091;-73
2022/03/10 14:25:45;;;;;;;4.37;2.98;;;15.40;99.90;;;;;;1927081;74;21133;-74
2022/03/10 14:28:39;;;;;;;5.37;3.40;;;15.40;99.90;;;;;;1907109;74;21209;-74
2022/03/10 14:31:30;;;;;;;4.28;2.90;;;15.40;99.90;;;;;;1908809;74;21129;-75
2022/03/10 14:34:22;;;;;;;4.62;3.10;;;15.50;99.90;;;;;;1904456;74;21059;-75
2022/03/10 14:37:14;;;;;;;3.85;2.70;;;15.70;99.90;;;;;;1903359;74;21152;-75
2022/03/10 14:40:08;;;;;;;3.92;3.10;;;15.50;99.90;;;;;;1904092;74;21474;-74
2022/03/10 14:43:01;;;;;;;4.80;3.10;;;15.60;99.90;;;;;;1873130;76;21172;-74
2022/03/10 14:45:53;;;;;;;4.40;3.20;;;15.80;99.90;;;;;;1912310;74;21042;-74
2022/03/10 14:48:45;;;;;;;3.60;2.90;;;15.80;99.90;;;;;;1861182;76;21068;-74
2022/03/10 14:51:38;;;;;;;4.03;2.67;;;15.70;99.90;;;;;;1901830;74;21210;-74
2022/03/10 14:54:30;;;;;;;4.87;2.98;;;15.60;99.90;;;;;;1912897;74;21062;-76
2022/03/10 14:57:21;;;;;;;4.37;3.00;;;15.50;99.90;;;;;;1871495;76;21561;-76
2022/03/10 15:00:16;;;;;;;4.10;3.25;;;15.40;99.90;;;;;;1931574;74;21104;-75
2022/03/10 15:03:09;;;;;;;6.40;3.12;;;15.40;99.90;;;;;;1910054;74;21129;-74
2022/03/10 15:06:01;;;;;;;6.15;2.90;;;15.30;99.90;;;;;;1911004;74;21116;-80
2022/03/10 15:08:52;;;;;;;5.42;3.15;;;15.30;99.90;;;;;;1857693;77;21164;-81
2022/03/10 15:11:44;;;;;;;4.50;3.05;;;15.30;99.90;;;;;;1867596;77;21165;-80
2022/03/10 15:14:36;;;;;;;5.17;2.90;;;15.30;99.90;;;;;;1902878;74;21200;-81
2022/03/10 15:17:28;;;;;;;4.97;3.47;;;15.50;99.90;;;;;;1918464;74;21063;-81
2022/03/10 15:20:19;;;;;;;6.53;3.05;;;15.60;99.90;;;;;;1931384;74;21143;-81
2022/03/10 15:23:11;;;;;;;4.55;2.92;;;16.30;99.90;;;;;;1912759;74;21517;-80
2022/03/10 15:26:05;;;;;;;4.15;3.00;;;17.00;99.90;;;;;;1910481;74;21199;-81
2022/03/10 15:28:56;;;;;;;4.58;3.25;;;17.10;99.90;;;;;;1910512;74;21628;-81
2022/03/10 15:31:48;;;;;;;4.97;3.00;;;17.40;99.90;;;;;;1931453;74;21114;-81
2022/03/10 15:34:39;;;;;;;5.35;2.80;;;17.20;99.90;;;;;;1915164;74;21038;-81
2022/03/10 15:37:31;;;;;;;4.60;3.05;;;17.00;99.90;;;;;;1909815;74;21046;-75
2022/03/10 15:40:23;;;;;;;4.80;3.08;;;16.50;99.90;;;;;;1863198;76;21208;-75
2022/03/10 15:43:15;;;;;;;5.33;3.20;;;16.40;99.90;;;;;;1920986;74;21159;-75
2022/03/10 15:46:07;;;;;;;5.08;2.60;;;16.40;99.90;;;;;;1873579;76;21070;-75
2022/03/10 15:48:58;;;;;;;5.70;3.02;;;16.00;99.90;;;;;;1921286;74;21690;-75
2022/03/10 15:51:51;;;;;;;5.17;2.67;;;15.60;99.90;;;;;;1883037;76;21158;-76
2022/03/10 15:54:43;;;;;;;4.87;3.02;;;15.40;99.90;;;;;;1910386;74;21071;-75
2022/03/10 15:57:35;;;;;;;4.12;3.15;;;15.40;99.90;;;;;;1915058;74;21070;-75
2022/03/10 16:00:27;;;;;;;6.45;2.90;;;15.20;99.90;;;;;;1869329;76;21109;-75
2022/03/10 16:03:19;;;;;;;4.03;2.65;;;15.20;99.90;;;;;;1926398;74;21582;-75
2022/03/10 16:06:10;;;;;;;4.58;3.22;;;15.20;99.90;;;;;;1920595;74;21058;-81
2022/03/10 16:11:47;;;;;;;3.80;2.80;;;15.00;99.90;;;;;;1945830;72;22342;-82
2022/03/10 16:15:05;;;;;;;2.85;2.58;;;15.00;99.90;;;;;;1884589;76;21062;-81
2022/03/10 16:18:00;;;;;;;3.92;2.60;;;15.10;99.90;;;;;;1914611;75;21155;-74
2022/03/10 16:20:55;;;;;;;5.55;2.70;;;15.50;99.90;;;;;;1895520;75;21091;-81
2022/03/10 16:23:49;;;;;;;5.75;2.58;;;15.60;99.90;;;;;;1896997;75;21082;-76
2022/03/10 16:26:42;;;;;;;3.75;2.50;;;15.70;99.90;;;;;;1884444;75;21061;-82
2022/03/10 16:29:39;;;;;;;5.35;2.80;;;15.70;99.90;;;;;;1895742;75;21055;-74
2022/03/10 16:32:30;;;;;;;4.30;2.90;;;15.60;99.90;;;;;;1895676;75;21051;-83
2022/03/10 16:35:22;;;;;;;5.78;2.52;;;15.60;99.90;;;;;;1914811;75;21550;-80
2022/03/10 16:38:14;;;;;;;3.15;2.55;;;15.60;99.90;;;;;;1903224;75;21047;-80
2022/03/10 16:41:06;;;;;;;3.67;2.55;;;15.40;99.90;;;;;;1908382;74;21055;-74
2022/03/10 16:43:59;;;;;;;3.67;2.30;;;15.30;99.90;;;;;;1907075;75;21122;-74
2022/03/10 16:46:51;;;;;;;2.75;2.33;;;15.10;99.90;;;;;;1906982;75;21080;-74
2022/03/10 16:49:43;;;;;;;3.58;2.33;;;14.70;99.90;;;;;;1904158;75;21172;-75
2022/03/10 16:52:34;;;;;;;5.60;2.20;;;14.80;99.90;;;;;;1899099;75;21102;-80
2022/03/10 16:55:27;;;;;;;3.72;2.30;;;14.60;99.90;;;;;;1886330;75;21776;-80
2022/03/10 16:58:18;;;;;;;3.10;2.33;;;14.50;99.90;;;;;;1906460;75;21510;-80
2022/03/10 17:01:10;;;;;;;4.45;2.50;;;14.40;99.90;;;;;;1884714;75;21138;-80
2022/03/10 17:04:02;;;;;;;3.50;2.72;;;14.30;99.90;;;;;;1884601;76;21087;-81
2022/03/10 17:06:54;;;;;;;5.33;2.87;;;14.20;99.90;;;;;;1895502;75;21154;-80
2022/03/10 17:09:46;;;;;;;4.37;2.80;;;14.10;99.90;;;;;;1895141;75;21051;-81
2022/03/10 17:12:39;;;;;;;3.75;2.75;;;14.10;99.90;;;;;;1910107;74;21084;-81
2022/03/10 17:15:30;;;;;;;5.62;2.77;;;14.10;99.90;;;;;;1875664;76;21058;-81
2022/03/10 17:18:22;;;;;;;3.92;2.87;;;14.10;99.90;;;;;;1913437;74;21513;-80
2022/03/10 17:21:16;;;;;;;5.50;2.77;;;13.90;99.90;;;;;;1925530;74;21526;-82
2022/03/10 17:24:09;;;;;;;4.50;3.37;;;13.80;99.90;;;;;;1902514;74;21102;-80
2022/03/10 17:27:02;;;;;;;6.62;3.33;;;13.80;99.90;;;;;;1912892;74;21687;-81
2022/03/10 17:29:54;;;;;;;3.22;2.90;;;13.80;99.90;;;;;;1915072;74;21058;-82
2022/03/10 17:32:45;;;;;;;7.08;3.42;;;13.80;99.90;;;;;;1910861;74;21059;-80
2022/03/10 17:35:38;;;;;;;3.72;2.85;;;13.70;99.90;;;;;;1905507;74;21054;-80
2022/03/10 17:38:30;;;;;;;5.28;2.62;;;13.60;99.90;;;;;;1921812;74;21548;-80
2022/03/10 17:41:21;;;;;;;3.83;2.45;;;13.70;99.90;;;;;;1899906;75;21087;-82
2022/03/10 17:44:13;;;;;;;3.00;2.62;;;13.60;99.90;;;;;;1868976;76;21062;-82
2022/03/10 17:47:06;;;;;;;4.30;2.50;;;13.70;99.90;;;;;;1910511;74;21098;-81